createdAt,value
2022-11-15T00:01:20.103Z,98570.66
2022-11-15T00:03:42.890Z,98571.34
2022-11-15T00:06:05.586Z,98556.13
2022-11-15T00:08:33.613Z,98547.19
2022-11-15T00:10:59.643Z,98554.97
2022-11-15T00:13:21.836Z,98539.78
2022-11-15T00:15:44.700Z,98526.22
2022-11-15T00:18:07.901Z,98523.41
2022-11-15T00:20:29.988Z,98505.53
2022-11-15T00:22:52.067Z,98510.69
2022-11-15T00:25:15.873Z,98507.38
2022-11-15T00:27:38.185Z,98497.31
2022-11-15T00:30:01.457Z,98474.44
2022-11-15T00:32:23.849Z,98468.16
2022-11-15T00:34:45.875Z,98462.69
2022-11-15T00:37:08.798Z,98464.38
2022-11-15T00:39:30.633Z,98484.63
2022-11-15T00:41:54.157Z,98464.75
2022-11-15T00:44:16.515Z,98451.34
2022-11-15T00:46:40.640Z,98459.13
2022-11-15T00:49:02.537Z,98439.75
2022-11-15T00:51:24.351Z,98439.25
2022-11-15T00:53:46.292Z,98427.84
2022-11-15T00:56:08.757Z,98421.38
2022-11-15T00:58:35.212Z,98424.69
2022-11-15T01:00:57.557Z,98434.94
2022-11-15T01:03:20.616Z,98418.75
2022-11-15T01:05:42.867Z,98409.47
2022-11-15T01:08:05.316Z,98412.13
2022-11-15T01:10:28.034Z,98400.84
2022-11-15T01:12:50.862Z,98399.16
2022-11-15T01:15:14.333Z,98406.81
2022-11-15T01:17:36.678Z,98389.09
2022-11-15T01:20:01.926Z,98387.94
2022-11-15T01:22:24.196Z,98384.28
2022-11-15T01:24:45.855Z,98393.72
2022-11-15T01:27:08.605Z,98374.34
2022-11-15T01:29:30.844Z,98376.16
2022-11-15T01:31:55.609Z,98361.75
2022-11-15T01:34:18.291Z,98358.09
2022-11-15T01:36:40.587Z,98365.72
2022-11-15T01:39:03.459Z,98352.63
2022-11-15T01:41:27.631Z,98370.19
2022-11-15T01:43:52.756Z,98355.13
2022-11-15T01:46:35.710Z,98357.78
2022-11-15T01:49:03.680Z,98357.59
2022-11-15T01:51:29.696Z,98358.44
2022-11-15T01:53:58.663Z,98353.81
2022-11-15T01:56:24.799Z,98359.75
2022-11-15T01:58:48.372Z,98447.09
2022-11-15T02:01:10.502Z,98441.63
2022-11-15T02:03:40.591Z,98455.16
2022-11-15T02:06:06.194Z,98463.97
2022-11-15T02:08:28.235Z,98466.25
2022-11-15T02:10:50.588Z,98463.31
2022-11-15T02:13:12.850Z,98469.63
2022-11-15T02:15:42.849Z,98481.59
2022-11-15T02:18:19.574Z,98488.09
2022-11-15T02:21:01.013Z,98486.50
2022-11-15T02:23:58.327Z,98484.59
2022-11-15T02:26:46.981Z,98489.16
2022-11-15T02:29:12.248Z,98493.66
2022-11-15T02:31:43.816Z,98492.59
2022-11-15T02:34:15.199Z,98491.22
2022-11-15T02:36:44.751Z,98501.13
2022-11-15T02:39:15.011Z,98498.75
2022-11-15T02:41:45.091Z,98504.34
2022-11-15T02:44:11.189Z,98503.69
2022-11-15T02:46:58.454Z,98506.75
2022-11-15T02:49:21.765Z,98514.13
2022-11-15T02:51:46.959Z,98517.78
2022-11-15T02:54:09.331Z,98517.78
2022-11-15T02:56:31.541Z,98525.00
2022-11-15T02:59:16.348Z,98523.31
2022-11-15T03:01:58.643Z,98529.75
2022-11-15T03:04:32.474Z,98515.03
2022-11-15T03:06:58.682Z,98516.16
2022-11-15T03:09:31.260Z,98517.28
2022-11-15T03:12:04.732Z,98513.94
2022-11-15T03:14:31.998Z,98510.91
2022-11-15T03:17:04.787Z,98515.50
2022-11-15T03:19:32.840Z,98509.53
2022-11-15T03:21:57.444Z,98515.94
2022-11-15T03:24:26.034Z,98516.09
2022-11-15T03:26:52.755Z,98522.34
2022-11-15T03:29:18.771Z,98521.53
2022-11-15T03:31:50.830Z,98518.72
2022-11-15T03:34:23.185Z,98515.09
2022-11-15T03:36:46.638Z,98524.00
2022-11-15T03:39:10.901Z,98525.94
2022-11-15T03:41:38.557Z,98530.41
2022-11-15T03:44:06.927Z,98521.78
2022-11-15T03:46:35.270Z,98521.78
2022-11-15T03:49:05.686Z,98516.66
2022-11-15T03:51:29.734Z,98520.13
2022-11-15T03:53:52.625Z,98515.69
2022-11-15T03:56:14.825Z,98515.69
2022-11-15T03:58:37.088Z,98520.97
2022-11-15T04:00:58.652Z,98511.38
2022-11-15T04:03:20.833Z,98512.19
2022-11-15T04:05:42.377Z,98508.72
2022-11-15T04:08:06.306Z,98501.94
2022-11-15T04:10:28.215Z,98494.00
2022-11-15T04:12:50.193Z,98493.34
2022-11-15T04:15:14.285Z,98490.00
2022-11-15T04:17:38.140Z,98490.13
2022-11-15T04:20:17.347Z,98494.84
2022-11-15T04:22:56.513Z,98487.91
2022-11-15T04:25:22.992Z,98493.47
2022-11-15T04:27:45.844Z,98491.81
2022-11-15T04:30:09.192Z,98504.31
2022-11-15T04:32:31.077Z,98493.91
2022-11-15T04:34:53.208Z,98510.56
2022-11-15T04:37:17.191Z,98507.91
2022-11-15T04:39:38.854Z,98517.66
2022-11-15T04:42:01.834Z,98524.63
2022-11-15T04:44:23.691Z,98527.41
2022-11-15T04:46:45.671Z,98522.94
2022-11-15T04:49:07.613Z,98518.63
2022-11-15T04:51:29.159Z,98503.63
2022-11-15T04:53:51.353Z,98499.31
2022-11-15T04:56:13.230Z,98498.50
2022-11-15T04:58:36.801Z,98501.25
2022-11-15T05:00:58.604Z,98500.44
2022-11-15T05:03:37.829Z,98497.94
2022-11-15T05:06:00.024Z,98502.41
2022-11-15T05:08:21.657Z,98500.59
2022-11-15T05:10:43.588Z,98514.47
2022-11-15T05:13:05.211Z,98523.09
2022-11-15T05:15:28.384Z,98517.00
2022-11-15T05:17:50.176Z,98515.16
2022-11-15T05:20:13.506Z,98531.81
2022-11-15T05:22:34.940Z,98542.25
2022-11-15T05:24:56.499Z,98539.59
2022-11-15T05:27:18.211Z,98538.78
2022-11-15T05:29:40.324Z,98536.13
2022-11-15T05:32:03.567Z,98539.59
2022-11-15T05:34:26.804Z,98546.69
2022-11-15T05:36:48.544Z,98552.69
2022-11-15T05:39:10.776Z,98566.84
2022-11-15T05:41:35.983Z,98572.00
2022-11-15T05:43:57.596Z,98576.44
2022-11-15T05:46:20.237Z,98576.44
2022-11-15T05:48:46.711Z,98577.41
2022-11-15T05:51:09.731Z,98581.03
2022-11-15T05:53:33.057Z,98580.06
2022-11-15T05:55:54.813Z,98570.47
2022-11-15T05:58:16.465Z,98568.78
2022-11-15T06:00:38.327Z,98571.72
2022-11-15T06:02:59.946Z,98573.53
2022-11-15T06:05:22.953Z,98575.63
2022-11-15T06:07:45.888Z,98582.97
2022-11-15T06:10:08.663Z,98595.50
2022-11-15T06:12:30.172Z,98591.31
2022-11-15T06:14:52.220Z,98580.91
2022-11-15T06:17:13.945Z,98572.44
2022-11-15T06:19:35.928Z,98577.03
2022-11-15T06:21:58.979Z,98593.81
2022-11-15T06:24:20.981Z,98583.41
2022-11-15T06:26:42.840Z,98576.31
2022-11-15T06:29:05.434Z,98581.59
2022-11-15T06:31:27.207Z,98580.91
2022-11-15T06:33:50.569Z,98584.53
2022-11-15T06:36:18.013Z,98585.63
2022-11-15T06:38:41.750Z,98582.16
2022-11-15T06:41:04.957Z,98583.81
2022-11-15T06:43:26.733Z,98585.63
2022-11-15T06:45:48.405Z,98598.00
2022-11-15T06:48:10.032Z,98589.38
2022-11-15T06:50:31.610Z,98593.84
2022-11-15T06:52:53.882Z,98593.84
2022-11-15T06:55:17.069Z,98598.41
2022-11-15T06:57:39.280Z,98600.22
2022-11-15T07:00:01.157Z,98612.59
2022-11-15T07:02:22.933Z,98613.56
2022-11-15T07:04:44.697Z,98615.47
2022-11-15T07:07:06.356Z,98623.53
2022-11-15T07:09:29.021Z,98635.06
2022-11-15T07:11:52.716Z,98627.28
2022-11-15T07:14:14.648Z,98629.22
2022-11-15T07:16:36.680Z,98617.16
2022-11-15T07:18:59.215Z,98628.81
2022-11-15T07:21:27.232Z,98626.31
2022-11-15T07:23:49.796Z,98617.53
2022-11-15T07:26:11.763Z,98619.34
2022-11-15T07:28:35.917Z,98617.81
2022-11-15T07:30:58.309Z,98618.78
2022-11-15T07:33:20.723Z,98618.94
2022-11-15T07:35:43.854Z,98628.78
2022-11-15T07:38:06.220Z,98616.84
2022-11-15T07:40:29.794Z,98608.38
2022-11-15T07:42:58.324Z,98618.38
2022-11-15T07:45:21.713Z,98624.84
2022-11-15T07:47:48.051Z,98630.56
2022-11-15T07:50:10.423Z,98630.25
2022-11-15T07:52:32.738Z,98632.34
2022-11-15T07:54:55.032Z,98622.91
2022-11-15T07:57:17.231Z,98625.66
2022-11-15T07:59:39.648Z,98619.69
2022-11-15T08:02:03.570Z,98628.97
2022-11-15T08:04:25.672Z,98631.88
2022-11-15T08:06:47.536Z,98629.47
2022-11-15T08:09:09.737Z,98638.50
2022-11-15T08:11:32.405Z,98643.91
2022-11-15T08:13:54.612Z,98643.06
2022-11-15T08:16:16.948Z,98644.16
2022-11-15T08:18:40.374Z,98644.16
2022-11-15T08:21:03.453Z,98643.47
2022-11-15T08:23:25.742Z,98629.59
2022-11-15T08:25:47.941Z,98621.97
2022-11-15T08:28:12.828Z,98635.25
2022-11-15T08:30:39.562Z,98648.56
2022-11-15T08:33:02.316Z,98651.44
2022-11-15T08:35:29.287Z,98650.63
2022-11-15T08:37:51.981Z,98661.03
2022-11-15T08:40:14.956Z,98654.81
2022-11-15T08:42:37.221Z,98662.56
2022-11-15T08:44:59.450Z,98656.06
2022-11-15T08:47:21.667Z,98645.25
2022-11-15T08:49:43.844Z,98642.34
2022-11-15T08:52:07.389Z,98641.41
2022-11-15T08:54:29.496Z,98638.63
2022-11-15T08:56:51.526Z,98642.13
2022-11-15T08:59:13.654Z,98631.44
2022-11-15T09:01:35.690Z,98632.13
2022-11-15T09:03:58.137Z,98637.25
2022-11-15T09:06:20.230Z,98640.88
2022-11-15T09:08:48.361Z,98630.47
2022-11-15T09:11:11.838Z,98628.94
2022-11-15T09:13:34.344Z,98620.31
2022-11-15T09:15:59.997Z,98624.63
2022-11-15T09:18:23.943Z,98622.00
2022-11-15T09:20:46.185Z,98617.53
2022-11-15T09:23:08.372Z,98618.41
2022-11-15T09:25:32.236Z,98610.34
2022-11-15T09:27:54.463Z,98609.41
2022-11-15T09:30:17.038Z,98616.06
2022-11-15T09:32:39.629Z,98618.41
2022-11-15T09:35:02.051Z,98611.09
2022-11-15T09:39:46.388Z,98605.84
2022-11-15T09:42:23.372Z,98605.56
2022-11-15T09:45:01.994Z,98605.72
2022-11-15T09:47:40.817Z,98602.56
2022-11-15T09:50:10.258Z,98607.69
2022-11-15T09:52:14.546Z,98598.13
2022-11-15T09:56:53.401Z,98596.47
2022-11-15T09:59:07.961Z,98591.34
2022-11-15T10:01:20.173Z,98593.00
2022-11-15T10:03:29.752Z,98597.97
2022-11-15T10:05:39.825Z,98593.53
2022-11-15T10:07:53.477Z,98593.09
2022-11-15T10:10:03.091Z,98593.34
2022-11-15T10:12:07.163Z,98591.78
2022-11-15T10:14:16.226Z,98592.47
2022-11-15T10:16:59.630Z,98590.50
2022-11-15T10:19:11.982Z,98597.56
2022-11-15T10:21:20.614Z,98598.22
2022-11-15T10:23:25.835Z,98594.31
2022-11-15T10:25:30.375Z,98589.72
2022-11-15T10:27:34.833Z,98588.47
2022-11-15T10:29:46.219Z,98589.44
2022-11-15T10:31:49.944Z,98578.16
2022-11-15T10:33:53.985Z,98579.16
2022-11-15T10:36:22.093Z,98575.34
2022-11-15T10:38:25.834Z,98581.75
2022-11-15T10:40:29.354Z,98581.00
2022-11-15T10:42:32.928Z,98573.44
2022-11-15T10:44:46.672Z,98574.81
2022-11-15T10:47:05.710Z,98563.34
2022-11-15T10:49:17.184Z,98567.06
2022-11-15T10:51:26.838Z,98567.59
2022-11-15T10:53:35.784Z,98568.16
2022-11-15T10:55:40.452Z,98573.78
2022-11-15T10:57:52.885Z,98567.22
2022-11-15T11:00:00.901Z,98565.94
2022-11-15T11:02:05.100Z,98560.50
2022-11-15T11:04:11.140Z,98554.91
2022-11-15T11:06:17.291Z,98558.06
2022-11-15T11:08:25.812Z,98558.06
2022-11-15T11:10:50.312Z,98560.06
2022-11-15T11:12:53.591Z,98563.53
2022-11-15T11:14:58.637Z,98561.03
2022-11-15T11:17:08.417Z,98566.47
2022-11-15T11:19:38.883Z,98555.06
2022-11-15T11:21:50.007Z,98548.13
2022-11-15T11:23:56.773Z,98553.56
2022-11-15T11:26:12.541Z,98541.97
2022-11-15T11:28:33.738Z,98542.13
2022-11-15T11:30:50.240Z,98545.09
2022-11-15T11:33:12.942Z,98536.47
2022-11-15T11:35:23.913Z,98540.25
2022-11-15T11:37:37.823Z,98541.22
2022-11-15T11:39:52.382Z,98533.97
2022-11-15T11:42:06.319Z,98526.88
2022-11-15T11:44:24.591Z,98515.44
2022-11-15T11:46:44.253Z,98504.84
2022-11-15T11:48:52.940Z,98503.06
2022-11-15T11:51:04.393Z,98496.78
2022-11-15T11:53:14.554Z,98502.75
2022-11-15T11:55:22.880Z,98499.94
2022-11-15T11:57:35.471Z,98501.63
2022-11-15T11:59:44.967Z,98505.94
2022-11-15T12:01:50.267Z,98502.44
2022-11-15T12:03:59.420Z,98496.63
2022-11-15T12:06:07.406Z,98506.38
2022-11-15T12:08:28.403Z,98505.31
2022-11-15T12:10:35.000Z,98507.31
2022-11-15T12:12:46.784Z,98501.16
2022-11-15T12:14:53.708Z,98507.31
2022-11-15T12:17:00.315Z,98502.03
2022-11-15T12:19:06.316Z,98495.88
2022-11-15T12:21:17.006Z,98493.06
2022-11-15T12:23:26.166Z,98486.16
2022-11-15T12:25:34.963Z,98487.94
2022-11-15T12:27:43.122Z,98483.78
2022-11-15T12:29:50.161Z,98485.06
2022-11-15T12:32:00.924Z,98487.88
2022-11-15T12:34:16.305Z,98474.78
2022-11-15T12:36:37.229Z,98466.16
2022-11-15T12:38:56.828Z,98463.69
2022-11-15T12:41:18.195Z,98467.47
2022-11-15T12:43:46.651Z,98469.28
2022-11-15T12:45:50.249Z,98461.50
2022-11-15T12:47:53.906Z,98462.47
2022-11-15T12:49:58.840Z,98464.47
2022-11-15T12:52:11.655Z,98461.28
2022-11-15T12:54:54.240Z,98458.78
2022-11-15T12:57:28.354Z,98457.13
2022-11-15T12:59:51.214Z,98458.94
2022-11-15T13:02:03.989Z,98452.13
2022-11-15T13:04:28.055Z,98457.41
2022-11-15T13:06:43.362Z,98445.88
2022-11-15T13:08:52.831Z,98448.50
2022-11-15T13:10:56.929Z,98444.88
2022-11-15T13:13:01.476Z,98439.72
2022-11-15T13:15:52.842Z,98441.25
2022-11-15T13:17:59.650Z,98430.66
2022-11-15T13:20:28.732Z,98434.00
2022-11-15T13:22:57.542Z,98426.91
2022-11-15T13:25:03.318Z,98426.75
2022-11-15T13:27:18.082Z,98432.88
2022-11-15T13:29:22.762Z,98434.53
2022-11-15T13:31:39.272Z,98430.91
2022-11-15T13:33:43.022Z,98437.00
2022-11-15T13:35:50.260Z,98428.09
2022-11-15T13:37:57.407Z,98435.06
2022-11-15T13:40:21.186Z,98432.25
2022-11-15T13:42:25.117Z,98431.28
2022-11-15T13:44:30.976Z,98423.19
2022-11-15T13:46:35.862Z,98417.91
2022-11-15T13:48:40.347Z,98420.53
2022-11-15T13:51:03.208Z,98423.19
2022-11-15T13:53:14.454Z,98422.22
2022-11-15T13:55:21.968Z,98419.56
2022-11-15T13:57:33.485Z,98423.84
2022-11-15T13:59:40.114Z,98424.69
2022-11-15T14:01:45.988Z,98415.09
2022-11-15T14:03:54.813Z,98412.47
2022-11-15T14:06:12.959Z,98410.63
2022-11-15T14:08:26.819Z,98407.97
2022-11-15T14:10:33.295Z,98409.66
2022-11-15T14:12:45.803Z,98412.31
2022-11-15T14:14:51.389Z,98407.00
2022-11-15T14:16:58.499Z,98398.25
2022-11-15T14:19:03.771Z,98401.56
2022-11-15T14:21:13.149Z,98406.03
2022-11-15T14:23:27.481Z,98395.47
2022-11-15T14:25:37.167Z,98398.09
2022-11-15T14:27:41.872Z,98393.94
2022-11-15T14:29:45.599Z,98394.91
2022-11-15T14:31:49.866Z,98393.28
2022-11-15T14:33:53.513Z,98393.56
2022-11-15T14:35:59.056Z,98398.03
2022-11-15T14:38:03.260Z,98389.41
2022-11-15T14:40:11.069Z,98397.22
2022-11-15T14:42:16.987Z,98391.06
2022-11-15T14:44:22.010Z,98390.09
2022-11-15T14:46:28.083Z,98387.47
2022-11-15T14:48:34.055Z,98388.44
2022-11-15T14:50:38.500Z,98391.78
2022-11-15T14:52:43.415Z,98386.47
2022-11-15T14:54:46.999Z,98378.56
2022-11-15T14:56:50.741Z,98379.53
2022-11-15T14:58:56.526Z,98376.19
2022-11-15T15:01:00.219Z,98370.25
2022-11-15T15:03:04.351Z,98368.56
2022-11-15T15:05:17.477Z,98372.34
2022-11-15T15:07:22.759Z,98372.50
2022-11-15T15:09:28.067Z,98364.56
2022-11-15T15:11:35.299Z,98366.56
2022-11-15T15:13:39.508Z,98361.44
2022-11-15T15:15:45.689Z,98357.94
2022-11-15T15:17:50.016Z,98359.75
2022-11-15T15:19:54.327Z,98353.63
2022-11-15T15:21:58.482Z,98358.09
2022-11-15T15:24:01.931Z,98347.81
2022-11-15T15:26:07.471Z,98351.59
2022-11-15T15:28:11.942Z,98347.59
2022-11-15T15:30:17.600Z,98349.56
2022-11-15T15:32:24.025Z,98350.84
2022-11-15T15:34:27.820Z,98351.84
2022-11-15T15:36:32.740Z,98348.50
2022-11-15T15:38:36.476Z,98352.13
2022-11-15T15:40:40.067Z,98346.19
2022-11-15T15:42:43.723Z,98343.84
2022-11-15T15:44:48.788Z,98338.84
2022-11-15T15:46:52.465Z,98335.53
2022-11-15T15:48:57.503Z,98337.47
2022-11-15T15:51:01.090Z,98332.50
2022-11-15T15:53:10.161Z,98331.00
2022-11-15T15:55:14.471Z,98336.28
2022-11-15T15:57:18.104Z,98334.78
2022-11-15T15:59:21.713Z,98338.69
2022-11-15T16:01:26.029Z,98329.72
2022-11-15T16:03:30.724Z,98323.06
2022-11-15T16:05:35.796Z,98325.88
2022-11-15T16:07:40.787Z,98320.75
2022-11-15T16:10:03.968Z,98315.75
2022-11-15T16:12:07.772Z,98322.19
2022-11-15T16:14:12.112Z,98322.75
2022-11-15T16:16:16.889Z,98318.22
2022-11-15T16:18:21.691Z,98320.59
2022-11-15T16:20:36.621Z,98317.59
2022-11-15T16:22:41.625Z,98318.84
2022-11-15T16:24:45.303Z,98308.72
2022-11-15T16:26:50.984Z,98302.06
2022-11-15T16:28:54.851Z,98304.06
2022-11-15T16:31:03.592Z,98299.34
2022-11-15T16:33:07.339Z,98299.50
2022-11-15T16:35:14.346Z,98295.34
2022-11-15T16:37:24.523Z,98291.34
2022-11-15T16:39:31.656Z,98300.38
2022-11-15T16:41:35.393Z,98297.22
2022-11-15T16:43:39.087Z,98295.84
2022-11-15T16:45:43.886Z,98289.19
2022-11-15T16:47:47.606Z,98288.66
2022-11-15T16:49:51.224Z,98288.81
2022-11-15T16:51:56.572Z,98289.09
2022-11-15T16:54:02.893Z,98289.38
2022-11-15T16:56:18.107Z,98290.47
2022-11-15T16:58:22.995Z,98294.53
2022-11-15T17:00:27.637Z,98295.81
2022-11-15T17:02:32.667Z,98304.72
2022-11-15T17:04:37.116Z,98301.53
2022-11-15T17:06:41.415Z,98301.81
2022-11-15T17:08:44.904Z,98296.97
2022-11-15T17:10:50.235Z,98295.44
2022-11-15T17:12:56.607Z,98293.78
2022-11-15T17:15:00.299Z,98294.47
2022-11-15T17:17:04.043Z,98296.00
2022-11-15T17:19:07.902Z,98295.28
2022-11-15T17:21:15.279Z,98290.88
2022-11-15T17:23:18.892Z,98291.00
2022-11-15T17:25:22.485Z,98294.31
2022-11-15T17:27:27.716Z,98290.72
2022-11-15T17:29:31.409Z,98288.78
2022-11-15T17:31:35.999Z,98284.31
2022-11-15T17:33:41.641Z,98276.56
2022-11-15T17:35:45.275Z,98286.25
2022-11-15T17:37:49.097Z,98280.16
2022-11-15T17:39:52.692Z,98281.84
2022-11-15T17:41:56.220Z,98287.94
2022-11-15T17:44:03.661Z,98285.44
2022-11-15T17:46:10.489Z,98285.59
2022-11-15T17:48:14.246Z,98288.38
2022-11-15T17:50:18.211Z,98291.00
2022-11-15T17:52:21.778Z,98287.69
2022-11-15T17:54:25.433Z,98281.88
2022-11-15T17:56:31.097Z,98290.75
2022-11-15T17:58:35.164Z,98283.66
2022-11-15T18:00:40.275Z,98280.88
2022-11-15T18:02:43.960Z,98278.09
2022-11-15T18:04:47.627Z,98275.19
2022-11-15T18:06:51.123Z,98278.50
2022-11-15T18:08:56.898Z,98289.59
2022-11-15T18:11:08.148Z,98283.06
2022-11-15T18:13:11.656Z,98275.16
2022-11-15T18:15:15.373Z,98275.97
2022-11-15T18:17:20.347Z,98275.16
2022-11-15T18:19:24.033Z,98277.94
2022-11-15T18:21:29.596Z,98278.25
2022-11-15T18:23:33.976Z,98279.72
2022-11-15T18:25:37.841Z,98271.81
2022-11-15T18:27:41.363Z,98266.53
2022-11-15T18:29:45.134Z,98262.13
2022-11-15T18:31:50.722Z,98259.91
2022-11-15T18:33:56.310Z,98261.00
2022-11-15T18:36:05.965Z,98263.81
2022-11-15T18:38:09.561Z,98258.16
2022-11-15T18:40:13.595Z,98275.34
2022-11-15T18:42:17.089Z,98271.09
2022-11-15T18:44:21.000Z,98267.22
2022-11-15T18:46:26.546Z,98268.31
2022-11-15T18:48:31.389Z,98267.22
2022-11-15T18:50:36.675Z,98261.69
2022-11-15T18:52:40.461Z,98262.94
2022-11-15T18:54:44.176Z,98270.84
2022-11-15T18:56:47.884Z,98261.81
2022-11-15T18:58:54.269Z,98268.72
2022-11-15T19:01:02.657Z,98269.59
2022-11-15T19:03:06.505Z,98260.81
2022-11-15T19:05:10.349Z,98262.81
2022-11-15T19:07:15.535Z,98263.09
2022-11-15T19:09:21.039Z,98261.19
2022-11-15T19:11:28.293Z,98257.19
2022-11-15T19:13:32.183Z,98258.41
2022-11-15T19:15:35.788Z,98258.94
2022-11-15T19:17:39.480Z,98253.25
2022-11-15T19:19:43.342Z,98254.78
2022-11-15T19:21:47.610Z,98258.69
2022-11-15T19:23:54.784Z,98253.81
2022-11-15T19:26:01.170Z,98259.22
2022-11-15T19:28:04.883Z,98258.41
2022-11-15T19:30:10.227Z,98264.50
2022-11-15T19:32:13.820Z,98255.63
2022-11-15T19:34:18.899Z,98258.94
2022-11-15T19:36:28.145Z,98261.31
2022-11-15T19:38:33.707Z,98262.00
2022-11-15T19:40:39.902Z,98265.03
2022-11-15T19:42:43.586Z,98263.78
2022-11-15T19:44:47.236Z,98259.03
2022-11-15T19:46:51.603Z,98260.56
2022-11-15T19:48:55.873Z,98260.31
2022-11-15T19:51:03.080Z,98258.63
2022-11-15T19:53:06.957Z,98263.91
2022-11-15T19:55:11.702Z,98261.25
2022-11-15T19:57:17.999Z,98260.00
2022-11-15T19:59:23.857Z,98257.78
2022-11-15T20:01:30.608Z,98268.03
2022-11-15T20:03:36.871Z,98263.31
2022-11-15T20:05:41.293Z,98254.97
2022-11-15T20:07:45.306Z,98255.50
2022-11-15T20:09:49.623Z,98258.53
2022-11-15T20:11:53.514Z,98254.63
2022-11-15T20:14:02.237Z,98257.81
2022-11-15T20:16:06.801Z,98251.28
2022-11-15T20:18:10.986Z,98252.66
2022-11-15T20:20:15.549Z,98245.13
2022-11-15T20:22:20.633Z,98249.28
2022-11-15T20:24:25.504Z,98257.72
2022-11-15T20:26:32.578Z,98252.16
2022-11-15T20:28:40.385Z,98255.47
2022-11-15T20:30:46.325Z,98249.22
2022-11-15T20:32:50.106Z,98244.78
2022-11-15T20:34:54.228Z,98238.38
2022-11-15T20:36:58.025Z,98240.06
2022-11-15T20:39:01.799Z,98229.50
2022-11-15T20:41:05.594Z,98225.03
2022-11-15T20:43:14.163Z,98225.88
2022-11-15T20:45:17.948Z,98216.97
2022-11-15T20:47:30.144Z,98207.44
2022-11-15T20:49:34.079Z,98210.34
2022-11-15T20:51:38.083Z,98207.69
2022-11-15T20:53:42.638Z,98208.69
2022-11-15T20:55:49.029Z,98209.66
2022-11-15T20:57:52.811Z,98211.34
2022-11-15T20:59:57.512Z,98211.47
2022-11-15T21:02:02.858Z,98215.09
2022-11-15T21:04:08.086Z,98208.16
2022-11-15T21:06:12.201Z,98214.41
2022-11-15T21:08:15.774Z,98211.75
2022-11-15T21:10:37.274Z,98207.44
2022-11-15T21:12:39.840Z,98214.56
2022-11-15T21:14:46.691Z,98211.25
2022-11-15T21:16:50.801Z,98212.88
2022-11-15T21:18:55.339Z,98214.56
2022-11-15T21:21:05.722Z,98214.41
2022-11-15T21:23:10.417Z,98212.59
2022-11-15T21:25:14.150Z,98205.34
2022-11-15T21:27:19.539Z,98206.88
2022-11-15T21:29:23.140Z,98203.69
2022-11-15T21:31:26.794Z,98200.38
2022-11-15T21:33:30.393Z,98200.38
2022-11-15T21:35:34.448Z,98189.84
2022-11-15T21:37:39.560Z,98183.72
2022-11-15T21:39:43.298Z,98182.06
2022-11-15T21:41:47.119Z,98186.50
2022-11-15T21:43:50.803Z,98183.06
2022-11-15T21:46:00.314Z,98186.50
2022-11-15T21:48:04.155Z,98189.28
2022-11-15T21:50:08.686Z,98189.28
2022-11-15T21:52:12.343Z,98187.78
2022-11-15T21:54:18.331Z,98185.44
2022-11-15T21:56:22.426Z,98193.50
2022-11-15T21:58:26.229Z,98192.53
2022-11-15T22:00:47.431Z,98195.31
2022-11-15T22:02:51.476Z,98197.25
2022-11-15T22:04:55.203Z,98198.22
2022-11-15T22:06:59.134Z,98194.63
2022-11-15T22:09:03.572Z,98188.38
2022-11-15T22:11:08.782Z,98192.69
2022-11-15T22:13:12.564Z,98182.25
2022-11-15T22:15:16.430Z,98185.19
2022-11-15T22:17:20.107Z,98181.75
2022-11-15T22:19:23.748Z,98182.72
2022-11-15T22:21:27.828Z,98178.41
2022-11-15T22:23:32.502Z,98174.00
2022-11-15T22:25:36.338Z,98174.72
2022-11-15T22:27:41.550Z,98174.00
2022-11-15T22:29:45.534Z,98176.13
2022-11-15T22:31:50.337Z,98177.56
2022-11-15T22:33:54.425Z,98174.75
2022-11-15T22:35:58.483Z,98171.69
2022-11-15T22:38:02.140Z,98167.25
2022-11-15T22:40:07.688Z,98175.16
2022-11-15T22:42:11.579Z,98176.66
2022-11-15T22:44:16.719Z,98178.03
2022-11-15T22:46:21.226Z,98181.81
2022-11-15T22:48:26.813Z,98174.00
2022-11-15T22:50:31.725Z,98179.06
2022-11-15T22:52:35.628Z,98172.69
2022-11-15T22:54:38.997Z,98169.53
2022-11-15T22:56:42.300Z,98175.94
2022-11-15T22:58:45.923Z,98167.88
2022-11-15T23:00:55.841Z,98171.63
2022-11-15T23:03:01.096Z,98176.75
2022-11-15T23:05:05.698Z,98162.19
2022-11-15T23:07:09.468Z,98166.81
2022-11-15T23:09:13.787Z,98162.09
2022-11-15T23:11:34.528Z,98160.06
2022-11-15T23:13:39.083Z,98168.06
2022-11-15T23:16:00.184Z,98167.97
2022-11-15T23:18:05.537Z,98169.19
2022-11-15T23:20:36.724Z,98157.13
2022-11-15T23:22:50.150Z,98172.09
2022-11-15T23:24:56.000Z,98158.09
2022-11-15T23:27:01.779Z,98162.69
2022-11-15T23:29:06.030Z,98171.25
2022-11-15T23:31:27.190Z,98164.47
2022-11-15T23:33:49.824Z,98175.16
2022-11-15T23:35:55.891Z,98162.44
2022-11-15T23:37:59.990Z,98162.00
2022-11-15T23:40:04.218Z,98160.06
2022-11-15T23:42:09.599Z,98161.84
2022-11-15T23:44:13.670Z,98154.38
2022-11-15T23:46:18.596Z,98158.84
2022-11-15T23:48:22.748Z,98153.31
2022-11-15T23:50:27.837Z,98141.97
2022-11-15T23:52:31.582Z,98149.03
2022-11-15T23:54:35.638Z,98153.06
2022-11-15T23:56:39.632Z,98152.38
2022-11-15T23:58:44.826Z,98155.69
